Tiempo atmosférico en la estación meteorológica de Beasain, Gipuzkoa (245 m.)



Fecha
DESCASC
Temp. máxima en grados centígrados (hora)
DESCASC
Temp. mínima en grados centígrados (hora)
DESCASC
Temp. media en grados centígrados
DESCASC
Racha de viento máxima en m/sg (hora)
DESCASC
Velocidad máxima media en intervalos de 10 minutos(hora)
DESCASC
Precipitaciones diarias en mm
DESCASC
Precipitaciones de 00:00 a 06:00 en mm
DESCASC
Precipitaciones de 06:00 a 12:00 en mm
DESCASC
Precipitaciones de 12:00 a 18:00 en mm
DESCASC
Precipitaciones de 18:00 a 24:00 en mm
DESCASC
05-12-2019 12.7 (15:00) 4.7 (23:59) 8.7 6.94 (13:50) 3.61 (12:30) 0 0 0 0 0
04-12-2019 13.4 (14:40) 0.1 (09:00) 6.7 6.39 (16:40) 3.61 (16:30) 0 0 0 0 0
03-12-2019 7 (16:20) 0.9 (00:00) 3.9 3.89 (05:40) 1.94 (05:40) 1 1 0 0 0
02-12-2019 8.6 (12:40) 5.2 (00:00) 6.9 7.22 (14:20) 3.33 (14:30) 1.2 0 0.4 0.8 0
01-12-2019 13.4 (15:40) 3.3 (00:00) 8.3 5 (20:40) 2.5 (16:10) 2.6 0.2 0 0 2.4
30-11-2019 15.2 (12:00) 5.9 (00:00) 10.5 10 (09:20) 5.28 (09:20) 17.4 0 0 16.6 0.8
29-11-2019 17.2 (14:20) 6.4 (00:00) 11.8 5.28 (03:20) 3.06 (03:50) 0.2 0.2 0 0 0
28-11-2019 15.6 (16:40) 9 (00:00) 12.3 8.89 (15:30) 3.89 (15:30) 3.4 0 0 2 1.4
27-11-2019 16.4 (00:00) 9 (00:00) 12.7 10.83 (02:20) 4.72 (01:20) 2.2 0 0 1.8 0.4
26-11-2019 18.4 (21:40) 7.3 (00:00) 12.8 17.22 (21:20) 6.11 (15:50) 0.2 0 0 0 0.2
25-11-2019 18.2 (14:20) 7.4 (00:00) 12.8 7.5 (14:40) 4.17 (14:40) 0.2 0.2 0 0 0
24-11-2019 11.8 (15:00) 7 (00:00) 9.4 4.44 (12:00) 1.67 (20:30) 12 8.6 1.8 0 1.6
23-11-2019 13.7 (00:00) 7.5 (00:00) 10.6 16.94 (08:20) 6.67 (09:50) 40.8 1.8 24.2 11.2 3.6
22-11-2019 13.7 (23:40) 5 (00:00) 9.3 15.83 (13:00) 7.78 (13:00) 3.2 0 0 1.8 1.4
21-11-2019 13.4 (11:20) 4.5 (00:00) 8.9 8.33 (02:30) 4.44 (03:50) 0 0 0 0 0
20-11-2019 12.4 (14:10) 2 (00:00) 7.2 10 (11:10) 4.72 (14:30) 0 0 0 0 0
19-11-2019 11.5 (15:30) 2.4 (00:00) 7 2.78 (07:20) 1.67 (14:10) 0.2 0.2 0 0 0
18-11-2019 8.2 (14:30) 3.3 (00:00) 5.7 5.83 (02:10) 2.78 (02:10) 12.2 10 1.6 0 0.6
17-11-2019 9.3 (14:00) 4.7 (00:00) 7 2.78 (14:10) 1.67 (14:30) 6.8 1.2 2.2 1 2.4
16-11-2019 6 (17:40) 0.7 (00:00) 3.3 3.33 (17:30) 1.67 (12:30) 13.6 0 4.8 7.4 1.4
15-11-2019 8.7 (14:00) 3.1 (00:00) 5.9 7.22 (11:30) 3.61 (14:50) 9.4 0.4 5.2 3.2 0.6
14-11-2019 11.8 (15:20) 3 (00:00) 7.4 8.61 (02:10) 4.17 (01:40) 12.6 12 0.6 0 0
13-11-2019 13.2 (13:40) 7.6 (00:00) 10.4 6.11 (15:30) 3.61 (15:10) 10 3 6.6 0.4 0
12-11-2019 12.8 (15:10) 5.3 (00:00) 9.1 7.22 (15:40) 3.61 (15:40) 3.6 1 1.4 0 1.2
11-11-2019 10 (14:40) 4.1 (01:10) 7 10 (14:20) 4.72 (14:20) 9.4 1 3.2 3.6 1.6
10-11-2019 7.8 (12:10) 4.8 (00:00) 6.3 7.78 (02:20) 3.89 (01:10) 26.4 7.4 6.8 8.8 3.4
09-11-2019 11.1 (13:40) 6.4 (00:00) 8.8 10 (18:50) 3.89 (18:50) 25.6 8.2 1.2 3.2 13
08-11-2019 8.3 (17:30) 3.1 (00:00) 5.7 9.44 (17:20) 4.17 (18:20) 50.6 1.8 9 23.8 16

Gráficas

Temp. máximas Temp. mínimas Temp. medias Precipitaciones Rachas de viento máximas Velocidades máximas media en intervalos de 10 minutos

Datos horarios

Fecha y hora oficial Temperatura (ºC) Velocidad del viento (km/h) Dirección del viento Racha (km/h) Dirección de racha Precipitación (mm) Presión (hPa) Tendencia (hPa) Humedad (%)
2019-12-07 23:00:00 6.6 0 Calma 4 Norte 0 -- -- 99
2019-12-07 22:00:00 7.4 0 Calma 4 Sudeste 0 -- -- 97
2019-12-07 21:00:00 8.4 0 Calma 6 Sudeste 0 -- -- 95
2019-12-07 20:00:00 9.6 2 Noroeste 5 Noroeste 0 -- -- 93
2019-12-07 19:00:00 10.1 0 Calma 3 Noroeste 0 -- -- 91
2019-12-07 18:00:00 10.9 2 Sudeste 6 Noroeste 0 -- -- 87
2019-12-07 17:00:00 12.7 5 Norte 6 Norte 0 -- -- 80
2019-12-07 16:00:00 15.1 3 Noroeste 5 Noroeste 0 -- -- 69
2019-12-07 15:00:00 15.3 3 Noroeste 8 Sudoeste 0 -- -- 67
2019-12-07 14:00:00 15.9 4 Oeste 9 Sudeste 0 -- -- 65
2019-12-07 13:00:00 13.5 4 Sudoeste 9 Sudeste 0 -- -- 72
2019-12-07 12:00:00 10.4 3 Sur 8 Sur 0 -- -- 87
2019-12-07 11:00:00 6.9 4 Sur 7 Sudoeste 0 -- -- 100
2019-12-07 10:00:00 4.3 0 Calma 8 Sudeste 0 -- -- 100
2019-12-07 09:00:00 2.7 0 Calma 6 Sudeste 0 -- -- 100
2019-12-07 08:00:00 2.9 0 Calma 4 Este 0 -- -- 100
2019-12-07 07:00:00 3.2 0 Calma 8 Sudeste 0 -- -- 100
2019-12-07 06:00:00 4 0 Calma 6 Norte 0 -- -- 100
2019-12-07 05:00:00 4.3 0 Calma 8 Este 0 -- -- 100
2019-12-07 04:00:00 5 3 Oeste 6 Sudeste 0 -- -- 100
2019-12-07 03:00:00 5.6 4 Norte 8 Norte 0 -- -- 99
2019-12-07 02:00:00 6.3 4 Sudeste 8 Sudeste 0 -- -- 98
2019-12-07 01:00:00 6.5 5 Noroeste 9 Nordeste 0 -- -- 98
2019-12-07 00:00:00 6.1 3 Sudeste 10 Sudeste 0 -- -- 98
2019-12-06 23:00:00 6.3 5 Norte 7 Sudeste 0 -- -- 99
2019-12-06 22:00:00 6.2 6 Sudeste 10 Sudeste 0 -- -- 98
2019-12-06 21:00:00 6.7 2 Oeste 7 Noroeste 0 -- -- 94
2019-12-06 20:00:00 7.7 0 Calma 5 Noroeste 0 -- -- 91
2019-12-06 19:00:00 8.9 2 Norte 6 Norte 0 -- -- 88
2019-12-06 18:00:00 10.5 3 Norte 6 Noroeste 0 -- -- 84
2019-12-06 17:00:00 12.1 4 Norte 6 Noroeste 0 -- -- 82
2019-12-06 16:00:00 14.3 3 Norte 12 Este 0 -- -- 71
2019-12-06 15:00:00 16.2 5 Sur 10 Sudeste 0 -- -- 56
2019-12-06 14:00:00 14.2 4 Sur 9 Sudeste 0 -- -- 75
2019-12-06 13:00:00 9.2 2 Sudoeste 6 Sur 0 -- -- 100
2019-12-06 12:00:00 5.4 0 Calma 5 Oeste 0 -- -- 100
2019-12-06 11:00:00 4.1 0 Calma 5 Noroeste 0 -- -- 100
2019-12-06 10:00:00 3.2 0 Calma 5 Noroeste 0 -- -- 100
2019-12-06 09:00:00 3.2 2 Oeste 5 Noroeste 0 -- -- 100
2019-12-06 08:00:00 3 0 Calma 9 Sudeste 0 -- -- 100
2019-12-06 07:00:00 2.9 5 Sudeste 6 Sur 0 -- -- 100
2019-12-06 06:00:00 3.5 2 Noroeste 5 Noroeste 0 -- -- 100
2019-12-06 05:00:00 3 0 Calma 8 Sudeste 0 -- -- 100
2019-12-06 04:00:00 3.4 2 Sudeste 5 Sudeste 0 -- -- 100
2019-12-06 03:00:00 3.9 3 Noroeste 5 Norte 0 -- -- 100
2019-12-06 02:00:00 3.4 0 Calma 7 Sudeste 0 -- -- 100
2019-12-06 01:00:00 4.1 0 Calma 5 Norte 0 -- -- 100
2019-12-06 00:00:00 4.7 0 Calma 5 Noroeste 0 -- -- 100
2019-12-05 23:00:00 5.3 0 Calma 5 Norte 0 -- -- 99
2019-12-05 22:00:00 5.9 4 Noroeste 6 Noroeste 0 -- -- 98
2019-12-05 21:00:00 6.8 2 Este 3 Este 0 -- -- 96
2019-12-05 20:00:00 7.9 0 Calma 8 Norte 0 -- -- 93
2019-12-05 19:00:00 9 5 Norte 13 Norte 0 -- -- 90
2019-12-05 18:00:00 9.9 10 Norte 14 Norte 0 -- -- 86
2019-12-05 17:00:00 11.2 9 Norte 17 Norte 0 -- -- 79
2019-12-05 16:00:00 12.6 9 Noroeste 18 Oeste 0 -- -- 72
2019-12-05 15:00:00 12.7 11 Noroeste 20 Noroeste 0 -- -- 71
2019-12-05 14:00:00 12.4 12 Noroeste 25 Norte 0 -- -- 73
2019-12-05 13:00:00 11.1 10 Noroeste 20 Noroeste 0 -- -- 77
2019-12-05 12:00:00 10.6 3 Noroeste 11 Noroeste 0 -- -- 80
2019-12-05 11:00:00 9.7 3 Sur 6 Sur 0 -- -- 83
2019-12-05 10:00:00 7.7 3 Sur 6 Sudeste 0 -- -- 95
2019-12-05 09:00:00 7.2 3 Sudeste 9 Norte 0 -- -- 96
2019-12-05 08:00:00 7.4 5 Noroeste 10 Noroeste 0 -- -- 93
2019-12-05 07:00:00 7.1 3 Noroeste 13 Norte 0 -- -- 95
2019-12-05 06:00:00 7.3 6 Norte 17 Norte 0 -- -- 93
2019-12-05 05:00:00 6.9 4 Norte 8 Norte 0 -- -- 97
2019-12-05 04:00:00 6.7 0 Calma 6 Sudeste 0 -- -- 97
2019-12-05 03:00:00 6.8 2 Norte 4 Norte 0 -- -- 97
2019-12-05 02:00:00 6.9 4 Norte 10 Sur 0 -- -- 95
2019-12-05 01:00:00 6.9 3 Sur 10 Sudeste 0 -- -- 94
2019-12-05 00:00:00 6.8 7 Noroeste 10 Noroeste 0 -- -- 95
2019-12-04 23:00:00 6.9 3 Noroeste 9 Norte 0 -- -- 95
2019-12-04 22:00:00 7.3 3 Noroeste 14 Norte 0 -- -- 96
2019-12-04 21:00:00 7.8 6 Norte 13 Norte 0 -- -- 96
2019-12-04 20:00:00 8.2 2 Este 11 Noroeste 0 -- -- 94
2019-12-04 19:00:00 8.7 4 Noroeste 13 Norte 0 -- -- 86
2019-12-04 18:00:00 8.9 6 Noroeste 17 Norte 0 -- -- 84
2019-12-04 17:00:00 9.5 8 Noroeste 23 Noroeste 0 -- -- 82
2019-12-04 16:00:00 12.3 10 Norte 18 Noroeste 0 -- -- 69
2019-12-04 15:00:00 12.9 11 Norte 20 Noroeste 0 -- -- 63
2019-12-04 14:00:00 12.6 3 Noroeste 8 Sudeste 0 -- -- 72
2019-12-04 13:00:00 8.8 4 Sudoeste 7 Sudoeste 0 -- -- 87
2019-12-04 12:00:00 4.4 3 Norte 6 Noroeste 0 -- -- 100
2019-12-04 11:00:00 1.6 3 Sur 8 Sudeste 0 -- -- 100
2019-12-04 10:00:00 0.6 4 Sudeste 6 Sudeste 0 -- -- 100
2019-12-04 09:00:00 0.1 0 Calma 4 Norte 0 -- -- 100
2019-12-04 08:00:00 0.3 2 Este 6 Norte 0 -- -- 100
2019-12-04 07:00:00 0.4 0 Calma 5 Norte 0 -- -- 100
2019-12-04 06:00:00 0.6 0 Calma 5 Noroeste 0 -- -- 100
2019-12-04 05:00:00 0.8 0 Calma 8 Noroeste 0 -- -- 100
2019-12-04 04:00:00 0.9 2 Sudoeste 6 Norte 0 -- -- 100
2019-12-04 03:00:00 1.1 0 Calma 5 Este 0 -- -- 100
2019-12-04 02:00:00 1.4 3 Sudoeste 5 Sur 0 -- -- 100
2019-12-04 01:00:00 1.6 0 Calma 4 Sudeste 0 -- -- 100
2019-12-04 00:00:00 1.5 3 Sudeste 4 Sudeste 0 -- -- 100
2019-12-03 23:00:00 1.2 0 Calma 5 Sudeste 0 -- -- 100
2019-12-03 22:00:00 0.9 2 Sudeste 6 Sur 0 -- -- 100
2019-12-03 21:00:00 1.3 2 Sudeste 5 Noroeste 0 -- -- 100
2019-12-03 20:00:00 2.1 3 Noroeste 6 Noroeste 0 -- -- 99
2019-12-03 19:00:00 2.9 0 Calma 7 Norte 0 -- -- 98
2019-12-03 18:00:00 4 3 Norte 5 Noroeste 0 -- -- 94
2019-12-03 17:00:00 6.3 0 Calma 9 Sudeste 0 -- -- 82
2019-12-03 16:00:00 6.6 0 Calma 4 Sudeste 0 -- -- 82
2019-12-03 15:00:00 6.3 0 Calma 4 Noroeste 0 -- -- 87
2019-12-03 14:00:00 5.7 3 Este 13 Sur 0 -- -- 90
2019-12-03 13:00:00 5.8 6 Sur 11 Sur 0 -- -- 91
2019-12-03 12:00:00 5.2 3 Sur 9 Sudeste 0 -- -- 95
2019-12-03 11:00:00 4.7 4 Sur 9 Sudeste 0 -- -- 100
2019-12-03 10:00:00 4.3 0 Calma 3 Este 0 -- -- 100
2019-12-03 09:00:00 3.8 3 Sudeste 5 Sur 0 -- -- 100
2019-12-03 08:00:00 4.2 0 Calma 5 Sudeste 0 -- -- 100
2019-12-03 07:00:00 4.3 0 Calma 4 Norte 0 -- -- 100
2019-12-03 06:00:00 4.4 2 Sur 14 Este 0 -- -- 100
2019-12-03 05:00:00 4.4 0 Calma 4 Noroeste 0.2 -- -- 100
2019-12-03 04:00:00 4.4 2 Sudeste 4 Sur 0.2 -- -- 100
2019-12-03 03:00:00 4.6 0 Calma 5 Sur 0.2 -- -- 99
2019-12-03 02:00:00 4.9 2 Sudeste 6 Sudeste 0.4 -- -- 98
2019-12-03 01:00:00 5.2 2 Norte 6 Norte 0 -- -- 93
2019-12-03 00:00:00 5.2 2 Nordeste 14 Noroeste 0 -- -- 93
2019-12-02 23:00:00 5.4 5 Noroeste 18 Norte 0 -- -- 91
2019-12-02 22:00:00 5.7 5 Norte 17 Nordeste 0 -- -- 89
2019-12-02 21:00:00 5.7 3 Noroeste 18 Noroeste 0 -- -- 93
2019-12-02 20:00:00 5.7 0 Calma 6 Noroeste 0 -- -- 94
2019-12-02 19:00:00 5.8 3 Norte 13 Norte 0 -- -- 94
2019-12-02 18:00:00 6.2 6 Norte 15 Noroeste 0 -- -- 92
2019-12-02 17:00:00 6.4 9 Norte 21 Noroeste 0.2 -- -- 94
2019-12-02 16:00:00 6.9 9 Norte 15 Norte 0 -- -- 94
2019-12-02 15:00:00 7 6 Noroeste 26 Norte 0.2 -- -- 97
2019-12-02 14:00:00 8.1 9 Norte 23 Norte 0 -- -- 95
2019-12-02 13:00:00 8.5 0 Calma 7 Noroeste 0.4 -- -- 100
2019-12-02 12:00:00 8.5 2 Sur 5 Noroeste 0.4 -- -- 100
2019-12-02 11:00:00 8.1 0 Calma 4 Este 0 -- -- 100
2019-12-02 10:00:00 7.5 0 Calma 7 Sudeste 0 -- -- 100
2019-12-02 09:00:00 6.8 0 Calma 5 Sudeste 0 -- -- 100
2019-12-02 08:00:00 6.5 2 Norte 7 Norte 0 -- -- 100
2019-12-02 07:00:00 6.3 0 Calma 8 Sudeste 0 -- -- 100
2019-12-02 06:00:00 6.5 4 Norte 7 Noroeste 0 -- -- 100
2019-12-02 05:00:00 6.5 0 Calma 7 Norte 0 -- -- 100
2019-12-02 04:00:00 6.2 0 Calma 6 Sudeste 0 -- -- 100
2019-12-02 03:00:00 6.5 4 Sudeste 5 Sudeste 0 -- -- 100
2019-12-02 02:00:00 6.4 2 Sur 5 Sudeste 0 -- -- 100
2019-12-02 01:00:00 6.8 3 Este 12 Noroeste 0 -- -- 100
2019-12-02 00:00:00 7.4 0 Calma 4 Norte 0 -- -- 100
2019-12-01 23:00:00 7.8 6 Noroeste 13 Noroeste 0.2 -- -- 100
2019-12-01 22:00:00 7.9 3 Noroeste 10 Noroeste 1 -- -- 100
2019-12-01 21:00:00 8.3 6 Noroeste 18 Norte 1.2 -- -- 99
2019-12-01 20:00:00 7.7 0 Calma 6 Sudeste 0 -- -- 97
2019-12-01 19:00:00 8.3 2 Noroeste 7 Norte 0 -- -- 95
2019-12-01 18:00:00 9.9 2 Nordeste 13 Norte 0 -- -- 87
2019-12-01 17:00:00 10.9 5 Norte 18 Noroeste 0 -- -- 81
2019-12-01 16:00:00 13.2 5 Noroeste 12 Norte 0 -- -- 76
2019-12-01 15:00:00 12.8 0 Calma 4 Sudoeste 0 -- -- 84
2019-12-01 14:00:00 12.9 3 Sudeste 6 Este 0 -- -- 75
2019-12-01 13:00:00 12.9 4 Sur 8 Sur 0 -- -- 77
2019-12-01 12:00:00 10.8 3 Sur 6 Sur 0 -- -- 90
2019-12-01 11:00:00 7.6 0 Calma 5 Sudeste 0 -- -- 100
2019-12-01 10:00:00 4.6 2 Norte 6 Sudeste 0 -- -- 100
2019-12-01 09:00:00 3.7 2 Sudeste 8 Sudeste 0 -- -- 100
2019-12-01 08:00:00 3.4 5 Sudeste 8 Este 0 -- -- 100
2019-12-01 07:00:00 3.6 3 Norte 5 Sudeste 0 -- -- 100
2019-12-01 06:00:00 4 0 Calma 7 Noroeste 0 -- -- 100
2019-12-01 05:00:00 4.5 2 Este 6 Norte 0 -- -- 100
2019-12-01 04:00:00 4.9 3 Norte 8 Norte 0 -- -- 100
2019-12-01 03:00:00 5.7 5 Norte 11 Noroeste 0 -- -- 100
2019-12-01 02:00:00 6.4 5 Norte 8 Norte 0 -- -- 100
2019-12-01 01:00:00 6.6 4 Noroeste 6 Noroeste 0.2 -- -- 100
2019-12-01 00:00:00 6.7 2 Norte 5 Noroeste 0 -- -- 100
2019-11-30 23:00:00 6.6 3 Norte 6 Norte 0 -- -- 100
2019-11-30 22:00:00 6.2 3 Noroeste 7 Noroeste 0 -- -- 100
2019-11-30 21:00:00 7.2 4 Norte 6 Norte 0 -- -- 100
2019-11-30 20:00:00 8.3 4 Sudeste 14 Noroeste 0 -- -- 100
2019-11-30 19:00:00 9.1 6 Norte 15 Sudeste 0.8 -- -- 100
2019-11-30 18:00:00 9.5 2 Sudeste 5 Nordeste 1.2 -- -- 100
2019-11-30 17:00:00 9.7 0 Calma 5 Este 2.8 -- -- 100
2019-11-30 16:00:00 9.9 0 Calma 6 Este 3.8 -- -- 99
2019-11-30 15:00:00 10.2 0 Calma 25 Noroeste 6.2 -- -- 98
2019-11-30 14:00:00 11.2 15 Noroeste 32 Noroeste 2.6 -- -- 95
2019-11-30 13:00:00 14.4 9 Sur 18 Sudeste 0 -- -- 80
2019-11-30 12:00:00 15.2 14 Sur 29 Sudeste 0 -- -- 68
2019-11-30 11:00:00 15 13 Sur 30 Sur 0 -- -- 69
2019-11-30 10:00:00 13.7 4 Oeste 36 Sudeste 0 -- -- 73
2019-11-30 09:00:00 14.2 10 Sur 24 Sur 0 -- -- 74
2019-11-30 08:00:00 11.7 4 Nordeste 15 Sudeste 0 -- -- 84
2019-11-30 07:00:00 11.8 4 Sur 21 Sudeste 0 -- -- 80
2019-11-30 06:00:00 11.9 13 Sur 25 Este 0 -- -- 76
2019-11-30 05:00:00 11.1 4 Sur 22 Sudeste 0 -- -- 81
2019-11-30 04:00:00 8.2 4 Sur 12 Sudoeste 0 -- -- 100
2019-11-30 03:00:00 6.5 4 Norte 9 Norte 0 -- -- 100
2019-11-30 02:00:00 6.2 2 Noroeste 7 Sudeste 0 -- -- 100
2019-11-30 01:00:00 5.9 3 Nordeste 9 Sudeste 0 -- -- 100
2019-11-30 00:00:00 6.4 3 Norte 8 Sudeste 0 -- -- 100
2019-11-29 23:00:00 7 2 Sudeste 4 Norte 0 -- -- 100
2019-11-29 22:00:00 7.4 0 Calma 5 Este 0 -- -- 100
2019-11-29 21:00:00 7.8 0 Calma 4 Sudeste 0 -- -- 98
2019-11-29 20:00:00 8.5 0 Calma 4 Noroeste 0 -- -- 96
2019-11-29 19:00:00 9.5 0 Calma 3 Norte 0 -- -- 93
2019-11-29 18:00:00 11.2 2 Norte 7 Norte 0 -- -- 88
2019-11-29 17:00:00 13.2 4 Norte 7 Noroeste 0 -- -- 77
2019-11-29 16:00:00 16.2 3 Norte 7 Norte 0 -- -- 65
2019-11-29 15:00:00 16.8 6 Noroeste 12 Noroeste 0 -- -- 62
2019-11-29 14:00:00 16.9 5 Noroeste 13 Oeste 0 -- -- 66
2019-11-29 13:00:00 16.6 6 Oeste 14 Oeste 0 -- -- 67
2019-11-29 12:00:00 15.2 3 Noroeste 10 Sudeste 0 -- -- 76
2019-11-29 11:00:00 12.8 2 Sur 4 Sur 0 -- -- 100
2019-11-29 10:00:00 11.2 0 Calma 3 Oeste 0 -- -- 100
2019-11-29 09:00:00 10.7 2 Sudeste 6 Norte 0 -- -- 100
2019-11-29 08:00:00 10.6 3 Noroeste 5 Noroeste 0 -- -- 100
2019-11-29 07:00:00 10.7 3 Norte 7 Norte 0 -- -- 100
2019-11-29 06:00:00 11.1 0 Calma 9 Sudeste 0 -- -- 100
2019-11-29 05:00:00 11.3 3 Sudeste 11 Noroeste 0 -- -- 100
2019-11-29 04:00:00 12 9 Noroeste 19 Noroeste 0 -- -- 99
2019-11-29 03:00:00 11.8 9 Noroeste 18 Noroeste 0 -- -- 100
2019-11-29 02:00:00 11.9 5 Noroeste 13 Norte 0.2 -- -- 100
2019-11-29 01:00:00 11.1 4 Noroeste 10 Norte 0 -- -- 100
2019-11-29 00:00:00 10.8 0 Calma 8 Noroeste 0 -- -- 100
2019-11-28 23:00:00 10.4 3 Norte 9 Norte 0 -- -- 100
2019-11-28 22:00:00 10.1 4 Norte 7 Norte 0 -- -- 100
2019-11-28 21:00:00 10.4 5 Sudeste 9 Sudeste 0 -- -- 100
2019-11-28 20:00:00 10.6 2 Noroeste 11 Noroeste 0.2 -- -- 99
2019-11-28 19:00:00 11 3 Sur 21 Nordeste 1.2 -- -- 97
2019-11-28 18:00:00 11.9 7 Noroeste 19 Norte 1.6 -- -- 95
2019-11-28 17:00:00 14.7 6 Nordeste 23 Sur 0.4 -- -- 76
2019-11-28 16:00:00 15.2 8 Sudeste 32 Este 0 -- -- 71
2019-11-28 15:00:00 14 7 Este 18 Sudeste 0 -- -- 78
2019-11-28 14:00:00 12.8 2 Nordeste 6 Noroeste 0 -- -- 87
2019-11-28 13:00:00 12.8 0 Calma 4 Noroeste 0 -- -- 84
2019-11-28 12:00:00 12.1 2 Norte 7 Este 0 -- -- 89
2019-11-28 11:00:00 10.7 6 Sudeste 9 Sudeste 0 -- -- 93
2019-11-28 10:00:00 10 3 Noroeste 5 Noroeste 0 -- -- 96
2019-11-28 09:00:00 9.5 0 Calma 4 Sudeste 0 -- -- 95
2019-11-28 08:00:00 9.2 2 Norte 7 Noroeste 0 -- -- 94
2019-11-28 07:00:00 9.1 3 Noroeste 10 Noroeste 0 -- -- 93
2019-11-28 06:00:00 9.5 5 Norte 10 Norte 0 -- -- 91
2019-11-28 05:00:00 10.9 5 Noroeste 14 Noroeste 0 -- -- 84
2019-11-28 04:00:00 10.8 6 Noroeste 14 Sudeste 0 -- -- 84
2019-11-28 03:00:00 10.5 3 Nordeste 14 Este 0 -- -- 87
2019-11-28 02:00:00 10.3 6 Norte 15 Norte 0 -- -- 88
2019-11-28 01:00:00 9.8 5 Norte 20 Norte 0 -- -- 95
2019-11-28 00:00:00 9.1 5 Norte 10 Noroeste 0 -- -- 100
2019-11-27 23:00:00 9 2 Norte 10 Norte 0 -- -- 100
2019-11-27 22:00:00 9.4 0 Calma 8 Noroeste 0 -- -- 100
2019-11-27 21:00:00 10.1 0 Calma 6 Norte 0 -- -- 100
2019-11-27 20:00:00 10.3 2 Noroeste 10 Norte 0 -- -- 99
2019-11-27 19:00:00 10.5 5 Noroeste 9 Norte 0.4 -- -- 99
2019-11-27 18:00:00 10.8 2 Norte 12 Sudeste 0.8 -- -- 97
2019-11-27 17:00:00 12.1 5 Sudeste 26 Sur 1 -- -- 87
2019-11-27 16:00:00 14.9 8 Nordeste 27 Sur 0 -- -- 61
2019-11-27 15:00:00 15.2 8 Sudeste 21 Sur 0 -- -- 59
2019-11-27 14:00:00 15.8 6 Sudeste 17 Sur 0 -- -- 59
2019-11-27 06:00:00 -- -- -- -- -- -- -- -- --
2019-11-27 05:00:00 13.3 6 Este 20 Nordeste 0 -- -- 59
2019-11-27 04:00:00 14.2 7 Norte 30 Sudeste 0 -- -- 59
2019-11-27 03:00:00 14.4 8 Sudeste 39 Norte 0 -- -- 61
2019-11-27 02:00:00 15.3 14 Sudeste 37 Sur 0 -- -- 59
2019-11-27 01:00:00 16 10 Este 35 Sudeste 0 -- -- 58
2019-11-27 00:00:00 16.4 9 Este 33 Sur 0 -- -- 61
2019-11-26 23:00:00 17.4 17 Sudeste 59 Sur 0 -- -- 56
2019-11-26 22:00:00 18.1 19 Nordeste 62 Noroeste 0 -- -- 54
2019-11-26 21:00:00 18.3 19 Sudeste 47 Sur 0.2 -- -- 57
2019-11-26 20:00:00 17.3 15 Sur 42 Sur 0 -- -- 69
2019-11-26 19:00:00 16.6 14 Sudeste 32 Sudeste 0 -- -- 70
2019-11-26 18:00:00 16.8 17 Sudeste 33 Sur 0 -- -- 69
2019-11-26 17:00:00 16.8 15 Sudeste 35 Sur 0 -- -- 68
2019-11-26 16:00:00 17.2 22 Sur 44 Sudeste 0 -- -- 65
2019-11-26 15:00:00 17.2 10 Sur 22 Sudeste 0 -- -- 66
2019-11-26 14:00:00 16.8 13 Sur 31 Sudeste 0 -- -- 63
2019-11-26 13:00:00 16.5 10 Sur 26 Sudeste 0 -- -- 68
2019-11-26 12:00:00 16.9 14 Sur 30 Este 0 -- -- 70
2019-11-26 11:00:00 14.2 4 Norte 14 Norte 0 -- -- 84
2019-11-26 10:00:00 13.2 5 Este 11 Noroeste 0 -- -- 85
2019-11-26 09:00:00 10.6 5 Noroeste 9 Este 0 -- -- 94
2019-11-26 08:00:00 10.4 6 Norte 9 Norte 0 -- -- 93
2019-11-26 07:00:00 9.6 4 Norte 9 Noroeste 0 -- -- 100
2019-11-26 06:00:00 8.8 2 Norte 12 Sur 0 -- -- 100
2019-11-26 05:00:00 8.1 5 Sur 11 Norte 0 -- -- 100
2019-11-26 04:00:00 7.5 3 Este 5 Este 0 -- -- 100
2019-11-26 03:00:00 7.3 2 Este 10 Sur 0 -- -- 100
2019-11-26 02:00:00 7.4 2 Oeste 6 Sudeste 0 -- -- 100
2019-11-26 01:00:00 7.7 6 Sudeste 10 Sudeste 0 -- -- 100
2019-11-26 00:00:00 8 4 Noroeste 6 Sudeste 0 -- -- 100
2019-11-25 23:00:00 8.7 0 Calma 7 Este 0 -- -- 100
2019-11-25 22:00:00 9.5 3 Noroeste 5 Noroeste 0 -- -- 99
2019-11-25 21:00:00 10.8 0 Calma 4 Noroeste 0 -- -- 98
2019-11-25 20:00:00 11.7 0 Calma 3 Norte 0 -- -- 96
2019-11-25 19:00:00 12.2 2 Norte 3 Nordeste 0 -- -- 94
2019-11-25 18:00:00 12.7 0 Calma 5 Oeste 0 -- -- 91
2019-11-25 17:00:00 13.7 4 Norte 12 Norte 0 -- -- 87
2019-11-25 16:00:00 14.4 8 Norte 22 Norte 0 -- -- 82
2019-11-25 15:00:00 15.2 13 Norte 27 Norte 0 -- -- 79
2019-11-25 14:00:00 17.6 2 Este 8 Este 0 -- -- 68
2019-11-25 13:00:00 16.9 4 Sudeste 10 Sudeste 0 -- -- 75
2019-11-25 12:00:00 14.7 2 Oeste 7 Sur 0 -- -- 90
2019-11-25 11:00:00 11.6 2 Norte 10 Sudeste 0 -- -- 100
2019-11-25 10:00:00 9.5 3 Sudeste 6 Noroeste 0 -- -- 100
2019-11-25 09:00:00 7.4 2 Sudeste 8 Sur 0 -- -- 100
2019-11-25 08:00:00 7.8 2 Sur 10 Noroeste 0 -- -- 100
2019-11-25 07:00:00 8 6 Nordeste 10 Nordeste 0 -- -- 100
2019-11-25 06:00:00 8 2 Noroeste 9 Noroeste 0 -- -- 100
2019-11-25 05:00:00 7.9 3 Norte 9 Norte 0 -- -- 100
2019-11-25 04:00:00 8 5 Norte 8 Norte 0 -- -- 100
2019-11-25 03:00:00 8.6 5 Norte 9 Norte 0 -- -- 100
2019-11-25 02:00:00 8.5 4 Sur 14 Noroeste 0 -- -- 100
2019-11-25 01:00:00 8.6 3 Noroeste 10 Nordeste 0.2 -- -- 100
2019-11-25 00:00:00 8.4 6 Noroeste 12 Norte 0 -- -- 100
2019-11-24 23:00:00 8.5 3 Norte 10 Noroeste 1 -- -- 100
2019-11-24 22:00:00 8 5 Norte 12 Noroeste 0.6 -- -- 100
2019-11-24 21:00:00 7.8 2 Este 12 Noroeste 0 -- -- 100
2019-11-24 20:00:00 7.9 0 Calma 10 Norte 0 -- -- 100
2019-11-24 19:00:00 8.2 3 Nordeste 7 Norte 0 -- -- 98
2019-11-24 18:00:00 8.8 4 Noroeste 6 Noroeste 0 -- -- 98
2019-11-24 17:00:00 10 2 Noroeste 7 Noroeste 0 -- -- 96
2019-11-24 16:00:00 11.5 0 Calma 8 Sudeste 0 -- -- 87
2019-11-24 15:00:00 11.8 3 Sudeste 6 Sudeste 0 -- -- 79
2019-11-24 14:00:00 10.1 0 Calma 11 Este 0 -- -- 92
2019-11-24 13:00:00 9.3 4 Sudeste 8 Oeste 0 -- -- 99
2019-11-24 12:00:00 9.1 5 Sudoeste 16 Oeste 0.4 -- -- 99
2019-11-24 11:00:00 8.5 0 Calma 8 Sudeste 0 -- -- 100
2019-11-24 10:00:00 7.8 0 Calma 6 Sudeste 0 -- -- 100
2019-11-24 09:00:00 7.4 0 Calma 5 Norte 0.2 -- -- 100
2019-11-24 08:00:00 7.2 0 Calma 4 Este 0.4 -- -- 100
2019-11-24 07:00:00 7.1 3 Este 5 Nordeste 0.8 -- -- 100
2019-11-24 06:00:00 7 3 Sudeste 6 Sudeste 0.6 -- -- 100
2019-11-24 05:00:00 7 0 Calma 7 Sudeste 1.2 -- -- 100
2019-11-24 04:00:00 7 0 Calma 6 Este 1.4 -- -- 100
2019-11-24 03:00:00 7.1 2 Noroeste 4 Norte 1.6 -- -- 100
2019-11-24 02:00:00 7.3 3 Sudoeste 7 Sudoeste 3.6 -- -- 100
2019-11-24 01:00:00 7.5 2 Oeste 13 Noroeste 0.2 -- -- 100
2019-11-24 00:00:00 7.5 0 Calma 10 Noroeste 0.6 -- -- 100
2019-11-23 23:00:00 7.5 5 Noroeste 8 Noroeste 0.4 -- -- 100
2019-11-23 22:00:00 7.6 5 Noroeste 14 Noroeste 0.6 -- -- 99
2019-11-23 21:00:00 8 7 Noroeste 22 Oeste 0.6 -- -- 97
2019-11-23 20:00:00 8.1 5 Noroeste 15 Norte 0.6 -- -- 98
2019-11-23 19:00:00 8.1 4 Noroeste 17 Noroeste 0.8 -- -- 97
2019-11-23 18:00:00 8.1 4 Oeste 24 Nordeste 4.2 -- -- 97
2019-11-23 17:00:00 8.9 7 Noroeste 22 Noroeste 0.2 -- -- 91
2019-11-23 16:00:00 8.9 7 Noroeste 27 Norte 1.4 -- -- 91
2019-11-23 15:00:00 8.8 6 Noroeste 26 Noroeste 2 -- -- 94
2019-11-23 14:00:00 9.7 7 Noroeste 31 Noroeste 1 -- -- 92
2019-11-23 13:00:00 8.5 16 Noroeste 38 Noroeste 2.4 -- -- 93
2019-11-23 12:00:00 8.5 9 Noroeste 35 Noroeste 1.6 -- -- 93
2019-11-23 11:00:00 8.2 15 Noroeste 38 Norte 4.6 -- -- 93
2019-11-23 10:00:00 8.5 20 Norte 59 Noroeste 5.2 -- -- 92
2019-11-23 09:00:00 8.8 23 Norte 61 Noroeste 5.6 -- -- 91
2019-11-23 08:00:00 9.1 12 Norte 40 Norte 4.6 -- -- 93
2019-11-23 07:00:00 8.6 4 Este 22 Norte 2.6 -- -- 88
2019-11-23 06:00:00 8.4 4 Noroeste 8 Nordeste 0.8 -- -- 97
2019-11-23 05:00:00 10 4 Norte 18 Norte 1 -- -- 81
2019-11-23 04:00:00 11.7 8 Oeste 33 Sur 0 -- -- 70
2019-11-23 03:00:00 12.9 10 Este 44 Sudoeste 0 -- -- 62
2019-11-23 02:00:00 13.2 15 Sur 40 Sudeste 0 -- -- 62
2019-11-23 01:00:00 13.4 13 Sudeste 30 Sur 0 -- -- 61
2019-11-23 00:00:00 13.7 13 Sur 42 Sur 0 -- -- 62
2019-11-22 23:00:00 13.3 8 Sudeste 37 Sur 0 -- -- 63
2019-11-22 22:00:00 13 13 Sur 35 Sudeste 0.2 -- -- 68
2019-11-22 21:00:00 12.4 10 Sur 36 Sudeste 0 -- -- 72
2019-11-22 20:00:00 12.3 8 Sudeste 25 Este 0 -- -- 73
2019-11-22 19:00:00 10.7 7 Este 33 Sur 1.2 -- -- 86
2019-11-22 18:00:00 12 20 Sur 39 Sur 0 -- -- 78
2019-11-22 17:00:00 11.8 8 Nordeste 45 Sur 0.2 -- -- 77
2019-11-22 16:00:00 10.8 6 Norte 25 Sudeste 1.4 -- -- 85
2019-11-22 15:00:00 10.8 4 Sudeste 45 Sur 0.2 -- -- 81
2019-11-22 14:00:00 12 16 Sur 49 Sur 0 -- -- 70
2019-11-22 13:00:00 12.2 28 Sur 57 Sudeste 0 -- -- 67
2019-11-22 12:00:00 12.2 11 Sudoeste 50 Sudoeste 0 -- -- 68
2019-11-22 11:00:00 11.2 22 Sur 55 Sudoeste 0 -- -- 69
2019-11-22 10:00:00 10.8 9 Sur 27 Sur 0 -- -- 71
2019-11-22 09:00:00 10.6 14 Sur 38 Sudeste 0 -- -- 70
2019-11-22 08:00:00 10.4 11 Sur 42 Sur 0 -- -- 70
2019-11-22 07:00:00 10 8 Sudeste 30 Sudeste 0 -- -- 71
2019-11-22 06:00:00 10.1 15 Sudeste 30 Sur 0 -- -- 71
2019-11-22 05:00:00 9.9 10 Sudeste 35 Sudeste 0 -- -- 72
2019-11-22 04:00:00 10.1 18 Sudeste 40 Sudeste 0 -- -- 70
2019-11-22 03:00:00 9.4 13 Sur 27 Sudeste 0 -- -- 73
2019-11-22 02:00:00 8.4 5 Sur 22 Oeste 0 -- -- 77
2019-11-22 01:00:00 9.2 11 Sudeste 22 Sur 0 -- -- 75
2019-11-22 00:00:00 5 0 Calma 6 Noroeste 0 -- -- 98
2019-11-21 23:00:00 4.5 2 Noroeste 5 Noroeste 0 -- -- 98
2019-11-21 22:00:00 4.8 3 Noroeste 6 Noroeste 0 -- -- 97
2019-11-21 21:00:00 5.4 3 Noroeste 5 Noroeste 0 -- -- 96
2019-11-21 20:00:00 6.3 3 Noroeste 7 Norte 0 -- -- 93
2019-11-21 19:00:00 7.2 4 Norte 6 Norte 0 -- -- 89
2019-11-21 18:00:00 8.6 4 Norte 8 Noroeste 0 -- -- 84
2019-11-21 17:00:00 10.4 2 Norte 10 Este 0 -- -- 76
2019-11-21 16:00:00 11.9 3 Noroeste 14 Sudeste 0 -- -- 71
2019-11-21 15:00:00 11.6 7 Sudeste 21 Sur 0 -- -- 67
2019-11-21 14:00:00 11.4 13 Sur 23 Sudeste 0 -- -- 67
2019-11-21 13:00:00 12 10 Sur 26 Sudeste 0 -- -- 64
2019-11-21 12:00:00 12.3 10 Sudeste 19 Sudeste 0 -- -- 64
2019-11-21 11:00:00 11.6 4 Norte 11 Este 0 -- -- 68
2019-11-21 10:00:00 9.3 4 Sudeste 14 Sur 0 -- -- 78
2019-11-21 09:00:00 8.5 11 Sur 22 Sur 0 -- -- 78
2019-11-21 08:00:00 7.7 4 Norte 9 Norte 0 -- -- 85
2019-11-21 07:00:00 7.6 3 Nordeste 10 Este 0 -- -- 84
2019-11-21 06:00:00 8.2 2 Nordeste 16 Este 0 -- -- 79
2019-11-21 05:00:00 8.9 11 Sur 30 Sur 0 -- -- 75
2019-11-21 04:00:00 9 10 Sur 27 Sudeste 0 -- -- 75
2019-11-21 03:00:00 9 8 Sudeste 30 Sudeste 0 -- -- 74
2019-11-21 02:00:00 8.3 11 Sur 24 Sudeste 0 -- -- 78
2019-11-21 01:00:00 8.2 6 Sur 19 Sudeste 0 -- -- 79
2019-11-21 00:00:00 8.8 12 Sudeste 27 Sudeste 0 -- -- 74
2019-11-20 23:00:00 9.3 14 Sudeste 33 Sur 0 -- -- 72
2019-11-20 22:00:00 9.5 7 Sudeste 17 Sur 0 -- -- 67
2019-11-20 21:00:00 9.5 5 Sudoeste 27 Sur 0 -- -- 66
2019-11-20 20:00:00 9.7 4 Sur 25 Sudeste 0 -- -- 69
2019-11-20 19:00:00 9.6 6 Sur 22 Sur 0 -- -- 68
2019-11-20 18:00:00 9.9 6 Sur 27 Sudoeste 0 -- -- 69
2019-11-20 17:00:00 10.4 6 Sur 27 Sur 0 -- -- 68
2019-11-20 16:00:00 11.3 12 Sur 28 Sudeste 0 -- -- 61
2019-11-20 15:00:00 11.6 10 Sur 30 Sur 0 -- -- 56
2019-11-20 14:00:00 12.2 9 Sudeste 28 Sur 0 -- -- 59
2019-11-20 13:00:00 11.2 8 Sur 22 Sur 0 -- -- 61
2019-11-20 12:00:00 9.6 10 Sudeste 36 Sudeste 0 -- -- 66
2019-11-20 11:00:00 8.5 13 Sudeste 26 Sudeste 0 -- -- 71
2019-11-20 10:00:00 7.6 8 Sudeste 19 Este 0 -- -- 75
2019-11-20 09:00:00 6.2 8 Sudeste 19 Sudeste 0 -- -- 80
2019-11-20 08:00:00 5.5 5 Sur 23 Este 0 -- -- 86
2019-11-20 07:00:00 4.9 6 Sudeste 20 Este 0 -- -- 92
2019-11-20 06:00:00 3.6 7 Sudeste 17 Sudeste 0 -- -- 100
2019-11-20 05:00:00 2.9 2 Norte 6 Noroeste 0 -- -- 100
2019-11-20 04:00:00 3 3 Noroeste 6 Noroeste 0 -- -- 100
2019-11-20 03:00:00 2.1 0 Calma 5 Sur 0 -- -- 100
2019-11-20 02:00:00 2.1 0 Calma 4 Este 0 -- -- 100
2019-11-20 01:00:00 2.4 2 Sudeste 4 Este 0 -- -- 100
2019-11-20 00:00:00 2.5 2 Sudeste 6 Sudeste 0 -- -- 100
2019-11-19 23:00:00 3 0 Calma 4 Sudeste 0 -- -- 100
2019-11-19 22:00:00 3.5 0 Calma 4 Este 0 -- -- 100
2019-11-19 21:00:00 4 2 Sudeste 4 Sudeste 0 -- -- 100
2019-11-19 20:00:00 4.6 0 Calma 5 Noroeste 0 -- -- 99
2019-11-19 19:00:00 5.5 4 Norte 7 Norte 0 -- -- 98
2019-11-19 18:00:00 6.8 2 Norte 5 Noroeste 0 -- -- 96
2019-11-19 17:00:00 8.7 3 Norte 7 Noroeste 0 -- -- 90
2019-11-19 16:00:00 10.6 2 Norte 5 Noroeste 0 -- -- 77
2019-11-19 15:00:00 11 3 Noroeste 10 Sudeste 0 -- -- 77
2019-11-19 14:00:00 11.1 5 Este 9 Este 0 -- -- 68
2019-11-19 13:00:00 9 4 Sudoeste 6 Sur 0 -- -- 92
2019-11-19 12:00:00 6.1 4 Sudoeste 8 Sur 0 -- -- 100
2019-11-19 11:00:00 4.7 3 Oeste 5 Sudoeste 0 -- -- 100
2019-11-19 10:00:00 3.8 2 Noroeste 5 Sur 0 -- -- 100
2019-11-19 09:00:00 3.7 2 Noroeste 5 Noroeste 0 -- -- 100
2019-11-19 08:00:00 3.5 0 Calma 10 Noroeste 0 -- -- 100
2019-11-19 07:00:00 3.6 4 Norte 6 Noroeste 0 -- -- 100
2019-11-19 06:00:00 3.7 3 Norte 6 Noroeste 0 -- -- 100
2019-11-19 05:00:00 3.6 4 Sudeste 8 Este 0.2 -- -- 100
2019-11-19 04:00:00 3.8 5 Noroeste 6 Noroeste 0 -- -- 100
2019-11-19 03:00:00 4.2 2 Norte 4 Norte 0 -- -- 100
2019-11-19 02:00:00 4.1 2 Nordeste 6 Norte 0 -- -- 100
2019-11-19 01:00:00 3.8 0 Calma 5 Norte 0 -- -- 100
2019-11-19 00:00:00 3.4 3 Norte 5 Noroeste 0 -- -- 100
2019-11-18 23:00:00 3.4 2 Norte 4 Noroeste 0 -- -- 100
2019-11-18 22:00:00 4.1 0 Calma 9 Noroeste 0 -- -- 100
2019-11-18 21:00:00 5.2 2 Oeste 5 Norte 0.2 -- -- 100
2019-11-18 20:00:00 5.6 2 Sudeste 5 Norte 0.4 -- -- 100
2019-11-18 19:00:00 5.5 2 Nordeste 6 Norte 0 -- -- 99
2019-11-18 18:00:00 5.6 3 Norte 8 Norte 0 -- -- 99
2019-11-18 17:00:00 6.8 0 Calma 5 Norte 0 -- -- 97
2019-11-18 16:00:00 7.4 3 Norte 9 Sudeste 0 -- -- 91
2019-11-18 15:00:00 7.9 4 Norte 9 Norte 0 -- -- 84
2019-11-18 14:00:00 8 5 Norte 9 Norte 0 -- -- 85
2019-11-18 13:00:00 7.3 5 Noroeste 16 Norte 0 -- -- 89
2019-11-18 12:00:00 7 0 Calma 6 Sudeste 0 -- -- 92
2019-11-18 11:00:00 6.3 4 Sur 9 Sur 0 -- -- 100
2019-11-18 10:00:00 5.6 0 Calma 3 Nordeste 0.8 -- -- 100
2019-11-18 09:00:00 5 0 Calma 8 Norte 0.2 -- -- 100
2019-11-18 08:00:00 4.6 5 Norte 9 Norte 0 -- -- 100
2019-11-18 07:00:00 5.4 2 Norte 18 Norte 0.6 -- -- 100
2019-11-18 06:00:00 5.5 3 Este 13 Nordeste 2 -- -- 100
2019-11-18 05:00:00 5.2 4 Norte 9 Noroeste 0 -- -- 100
2019-11-18 04:00:00 6 3 Sudoeste 17 Norte 1.2 -- -- 100
2019-11-18 03:00:00 6.2 3 Este 21 Noroeste 1.2 -- -- 100
2019-11-18 02:00:00 6.4 5 Nordeste 19 Noroeste 1.4 -- -- 100
2019-11-18 01:00:00 6.4 0 Calma 17 Noroeste 4.2 -- -- 100
2019-11-18 00:00:00 6.4 4 Noroeste 10 Noroeste 1.4 -- -- 100
2019-11-17 23:00:00 6.5 4 Noroeste 7 Norte 0.4 -- -- 100
2019-11-17 22:00:00 6.4 3 Este 5 Sudeste 0.6 -- -- 100
2019-11-17 21:00:00 6.1 0 Calma 9 Noroeste 0 -- -- 100
2019-11-17 20:00:00 6.3 3 Noroeste 6 Norte 0 -- -- 100
2019-11-17 19:00:00 7.2 3 Norte 8 Noroeste 0 -- -- 100
2019-11-17 18:00:00 8.1 4 Noroeste 9 Noroeste 0 -- -- 100
2019-11-17 17:00:00 8.7 4 Norte 8 Norte 0 -- -- 100
2019-11-17 16:00:00 9 2 Este 6 Noroeste 0.2 -- -- 99
2019-11-17 15:00:00 9 4 Noroeste 10 Norte 0 -- -- 99
2019-11-17 14:00:00 9.3 2 Norte 7 Este 0.2 -- -- 98
2019-11-17 13:00:00 8.2 2 Norte 6 Noroeste 0.6 -- -- 100
2019-11-17 12:00:00 7.4 2 Sur 9 Noroeste 0.2 -- -- 100
2019-11-17 11:00:00 6.3 2 Sudeste 6 Sudeste 1.6 -- -- 100
2019-11-17 10:00:00 5.9 2 Oeste 6 Sudeste 0.2 -- -- 100
2019-11-17 09:00:00 5.4 2 Norte 5 Norte 0 -- -- 100
2019-11-17 08:00:00 5.4 0 Calma 3 Sudeste 0 -- -- 100
2019-11-17 07:00:00 5.4 2 Norte 4 Sudeste 0.2 -- -- 100
2019-11-17 06:00:00 5.2 0 Calma 3 Sudeste 0.2 -- -- 100
2019-11-17 05:00:00 5.3 3 Norte 4 Norte 0.4 -- -- 100
2019-11-17 04:00:00 5.2 3 Norte 4 Sudeste 0.2 -- -- 100
2019-11-17 03:00:00 5.1 0 Calma 4 Sur 0.2 -- -- 100
2019-11-17 02:00:00 4.9 5 Sudeste 8 Sudeste 0.2 -- -- 100
2019-11-17 01:00:00 4.8 0 Calma 9 Sudeste 0 -- -- 100
2019-11-17 00:00:00 4.7 5 Sudeste 9 Norte 0.2 -- -- 100
2019-11-16 23:00:00 4.6 2 Norte 5 Norte 0 -- -- 100
2019-11-16 22:00:00 4.7 4 Norte 7 Norte 0 -- -- 100
2019-11-16 21:00:00 5.3 3 Norte 5 Noroeste 0 -- -- 100
2019-11-16 20:00:00 5.8 4 Sudeste 6 Sudeste 0.4 -- -- 100
2019-11-16 19:00:00 5.9 4 Este 6 Norte 0.8 -- -- 100
2019-11-16 18:00:00 5.9 2 Sudoeste 12 Norte 0.8 -- -- 100
2019-11-16 17:00:00 5.9 0 Calma 7 Norte 2 -- -- 100
2019-11-16 16:00:00 5.8 5 Norte 8 Noroeste 0.6 -- -- 100
2019-11-16 15:00:00 5.3 4 Noroeste 7 Noroeste 1 -- -- 100
2019-11-16 14:00:00 5.2 3 Norte 9 Norte 1.2 -- -- 100
2019-11-16 13:00:00 4.6 3 Norte 9 Norte 1.8 -- -- 100
2019-11-16 12:00:00 4 3 Nordeste 6 Nordeste 1.8 -- -- 100
2019-11-16 11:00:00 2.4 3 Sudeste 6 Este 2.6 -- -- 100
2019-11-16 10:00:00 1.6 4 Sudeste 9 Sudeste 0.4 -- -- 100
2019-11-16 09:00:00 1.1 3 Noroeste 6 Sur 0 -- -- 100
2019-11-16 08:00:00 0.7 3 Sudeste 5 Sudeste 0 -- -- 100
2019-11-16 07:00:00 0.7 3 Sudeste 6 Noroeste 0 -- -- 100
2019-11-16 06:00:00 1 2 Noroeste 7 Sur 0 -- -- 100
2019-11-16 05:00:00 1.5 2 Sudeste 7 Noroeste 0 -- -- 100
2019-11-16 04:00:00 1.8 3 Sur 5 Sur 0 -- -- 100
2019-11-16 03:00:00 2.1 2 Este 4 Nordeste 0 -- -- 100
2019-11-16 02:00:00 2.4 0 Calma 8 Sudeste 0 -- -- 100
2019-11-16 01:00:00 2.4 3 Sudeste 5 Norte 0 -- -- 100
2019-11-16 00:00:00 3.1 0 Calma 4 Norte 0 -- -- 100
2019-11-15 23:00:00 3.5 0 Calma 6 Noroeste 0 -- -- 100
2019-11-15 22:00:00 4.2 2 Noroeste 4 Noroeste 0 -- -- 100
2019-11-15 21:00:00 4.6 3 Noroeste 6 Norte 0.2 -- -- 100
2019-11-15 20:00:00 4.8 3 Norte 13 Noroeste 0.2 -- -- 98
2019-11-15 19:00:00 5.1 0 Calma 19 Norte 0.2 -- -- 97
2019-11-15 18:00:00 4.9 5 Noroeste 10 Oeste 0.4 -- -- 98
2019-11-15 17:00:00 5.3 4 Noroeste 10 Norte 1.4 -- -- 99
2019-11-15 16:00:00 5.4 3 Este 9 Oeste 0.2 -- -- 95
2019-11-15 15:00:00 6.1 4 Noroeste 23 Norte 1.2 -- -- 91
2019-11-15 14:00:00 8.7 3 Este 9 Noroeste 0 -- -- 91
2019-11-15 13:00:00 8.1 4 Nordeste 25 Norte 0 -- -- 94
2019-11-15 12:00:00 6.7 6 Noroeste 26 Noroeste 1.4 -- -- 98
2019-11-15 11:00:00 5.6 7 Noroeste 19 Noroeste 1 -- -- 96
2019-11-15 10:00:00 5.1 3 Sur 10 Este 0.4 -- -- 100
2019-11-15 09:00:00 4.7 5 Nordeste 8 Noroeste 0.4 -- -- 100
2019-11-15 08:00:00 4.6 2 Oeste 9 Norte 1.6 -- -- 100
2019-11-15 07:00:00 4.8 4 Norte 10 Noroeste 0.4 -- -- 100
2019-11-15 06:00:00 5.1 3 Noroeste 16 Nordeste 0.4 -- -- 92
2019-11-15 05:00:00 4.8 4 Norte 13 Noroeste 0 -- -- 95
2019-11-15 04:00:00 4.2 5 Sudeste 8 Sudeste 0 -- -- 100
2019-11-15 03:00:00 4.4 3 Norte 6 Noroeste 0 -- -- 99
2019-11-15 02:00:00 4.5 3 Norte 5 Norte 0 -- -- 99
2019-11-15 01:00:00 4.6 3 Sudeste 6 Noroeste 0 -- -- 97
2019-11-15 00:00:00 5.6 2 Sudoeste 14 Norte 0 -- -- 91
2019-11-14 23:00:00 6 3 Norte 12 Norte 0 -- -- 88
2019-11-14 22:00:00 5.9 2 Noroeste 12 Noroeste 0 -- -- 91
2019-11-14 21:00:00 6.2 5 Noroeste 17 Noroeste 0 -- -- 91
2019-11-14 20:00:00 6.3 6 Noroeste 18 Noroeste 0 -- -- 95
2019-11-14 19:00:00 6.6 4 Oeste 14 Norte 0 -- -- 90
2019-11-14 18:00:00 7 10 Norte 20 Nordeste 0 -- -- 86
2019-11-14 17:00:00 8.6 3 Norte 7 Noroeste 0 -- -- 80
2019-11-14 16:00:00 10.1 5 Sudeste 17 Sur 0 -- -- 64
2019-11-14 15:00:00 11.1 7 Sur 15 Sur 0 -- -- 55
2019-11-14 14:00:00 11.3 6 Sur 17 Sudeste 0 -- -- 58
2019-11-14 13:00:00 9.6 3 Sudeste 10 Nordeste 0 -- -- 74
2019-11-14 12:00:00 9.2 2 Este 7 Sudoeste 0 -- -- 77
2019-11-14 11:00:00 6.7 3 Sur 6 Sur 0 -- -- 96
2019-11-14 10:00:00 4.7 0 Calma 5 Norte 0 -- -- 100
2019-11-14 09:00:00 3.2 2 Nordeste 6 Norte 0 -- -- 100
2019-11-14 08:00:00 3.4 3 Norte 6 Este 0.2 -- -- 100
2019-11-14 07:00:00 4 0 Calma 4 Noroeste 0.4 -- -- 99
2019-11-14 06:00:00 4.4 2 Este 18 Noroeste 2.2 -- -- 96
2019-11-14 05:00:00 5.2 7 Noroeste 20 Noroeste 2.6 -- -- 95
2019-11-14 04:00:00 6.3 8 Noroeste 16 Noroeste 3.2 -- -- 97
2019-11-14 03:00:00 7 7 Noroeste 31 Norte 3.4 -- -- 95
2019-11-14 02:00:00 8.8 12 Norte 28 Norte 0.6 -- -- 91
2019-11-14 01:00:00 7.5 2 Norte 8 Noroeste 0 -- -- 100
2019-11-14 00:00:00 7.6 6 Noroeste 9 Norte 0 -- -- 100
2019-11-13 23:00:00 7.9 6 Sudeste 13 Norte 0 -- -- 100
2019-11-13 22:00:00 7.9 2 Norte 10 Sudeste 0 -- -- 100
2019-11-13 21:00:00 8 3 Noroeste 9 Noroeste 0 -- -- 100
2019-11-13 20:00:00 7.9 5 Sudeste 9 Noroeste 0 -- -- 100
2019-11-13 19:00:00 8.1 3 Norte 5 Norte 0 -- -- 98
2019-11-13 18:00:00 9.1 2 Norte 7 Norte 0 -- -- 96
2019-11-13 17:00:00 10 4 Norte 9 Oeste 0 -- -- 94
2019-11-13 16:00:00 10.5 6 Noroeste 22 Norte 0.2 -- -- 87
2019-11-13 15:00:00 11.7 6 Noroeste 18 Norte 0 -- -- 78
2019-11-13 14:00:00 12.9 6 Noroeste 19 Nordeste 0 -- -- 76
2019-11-13 13:00:00 12.6 8 Norte 18 Noroeste 0.2 -- -- 81
2019-11-13 12:00:00 10.4 4 Oeste 10 Oeste 1 -- -- 99
2019-11-13 11:00:00 9.2 4 Sudeste 7 Sudeste 1 -- -- 100
2019-11-13 10:00:00 9 3 Sur 5 Sudeste 0.2 -- -- 100
2019-11-13 09:00:00 8.6 0 Calma 10 Este 0.2 -- -- 100
2019-11-13 08:00:00 8.3 3 Este 8 Norte 0.8 -- -- 100
2019-11-13 07:00:00 8.1 0 Calma 4 Noroeste 3.4 -- -- 100
2019-11-13 06:00:00 7.9 0 Calma 4 Este 0.4 -- -- 100
2019-11-13 05:00:00 7.9 0 Calma 5 Sudeste 1.6 -- -- 100
2019-11-13 04:00:00 7.9 2 Noroeste 4 Norte 0.8 -- -- 100
2019-11-13 03:00:00 7.9 0 Calma 4 Este 0 -- -- 100
2019-11-13 02:00:00 7.7 2 Sudeste 4 Norte 0 -- -- 100
2019-11-13 01:00:00 7.8 4 Sudeste 7 Sudeste 0.2 -- -- 100
2019-11-13 00:00:00 7.8 0 Calma 6 Noroeste 0 -- -- 100
2019-11-12 23:00:00 8 5 Norte 9 Noroeste 0.2 -- -- 100
2019-11-12 22:00:00 8.3 4 Norte 6 Norte 0.2 -- -- 100
2019-11-12 21:00:00 8.4 3 Noroeste 6 Este 0.6 -- -- 100
2019-11-12 20:00:00 8.5 2 Norte 5 Noroeste 0.2 -- -- 99
2019-11-12 19:00:00 8.8 0 Calma 6 Noroeste 0 -- -- 97
2019-11-12 18:00:00 9.4 4 Norte 5 Norte 0 -- -- 93
2019-11-12 17:00:00 11.2 2 Noroeste 7 Oeste 0 -- -- 90
2019-11-12 16:00:00 12.2 5 Noroeste 26 Norte 0 -- -- 76
2019-11-12 15:00:00 12.6 5 Noroeste 19 Noroeste 0 -- -- 74
2019-11-12 14:00:00 11.8 3 Noroeste 21 Noroeste 0 -- -- 79
2019-11-12 13:00:00 11 4 Norte 11 Noroeste 0 -- -- 88
2019-11-12 12:00:00 9.9 3 Oeste 6 Noroeste 0 -- -- 94
2019-11-12 11:00:00 8.6 3 Norte 6 Nordeste 0.2 -- -- 100
2019-11-12 10:00:00 8.2 0 Calma 15 Norte 0.6 -- -- 99
2019-11-12 09:00:00 7.8 6 Noroeste 14 Norte 0 -- -- 100
2019-11-12 08:00:00 7.3 3 Sudoeste 12 Noroeste 0.6 -- -- 100
2019-11-12 07:00:00 7 4 Sudeste 8 Sudeste 0 -- -- 100
2019-11-12 06:00:00 7.1 3 Sur 10 Nordeste 0.4 -- -- 100
2019-11-12 05:00:00 6.9 3 Noroeste 8 Noroeste 0 -- -- 100
2019-11-12 04:00:00 6.4 2 Nordeste 15 Norte 0.4 -- -- 100
2019-11-12 03:00:00 5.9 5 Noroeste 9 Noroeste -- -- -- 100
2019-11-12 02:00:00 5.5 4 Sur 10 Sur 0.2 -- -- 100
2019-11-12 01:00:00 5.4 4 Este 10 Este 0 -- -- 100
2019-11-12 00:00:00 5.9 0 Calma 9 Noroeste 0 -- -- 100
2019-11-11 23:00:00 6.1 2 Norte 5 Noroeste 0 -- -- 100
2019-11-11 22:00:00 6.3 0 Calma 7 Sudeste 0.2 -- -- 100
2019-11-11 21:00:00 6.8 0 Calma 8 Sudeste 0.4 -- -- 100
2019-11-11 20:00:00 7.1 3 Norte 8 Sudoeste 0 -- -- 99
2019-11-11 19:00:00 7.6 0 Calma 15 Noroeste 1 -- -- 98
2019-11-11 18:00:00 9 13 Noroeste 30 Noroeste 0 -- -- 83
2019-11-11 17:00:00 9.2 7 Norte 30 Noroeste 0.4 -- -- 91
2019-11-11 16:00:00 8.9 4 Noroeste 23 Noroeste 0.4 -- -- 96
2019-11-11 15:00:00 9.6 10 Noroeste 36 Noroeste 0.4 -- -- 92
2019-11-11 14:00:00 8.5 6 Oeste 19 Noroeste 1.2 -- -- 100
2019-11-11 13:00:00 8.4 2 Oeste 6 Noroeste 1.2 -- -- 100
2019-11-11 12:00:00 7.5 2 Sudeste 5 Sudeste 1.6 -- -- 100
2019-11-11 11:00:00 7 0 Calma 4 Sur 1 -- -- 100
2019-11-11 10:00:00 6.2 3 Sur 5 Sur 0.4 -- -- 100
2019-11-11 09:00:00 5.6 0 Calma 5 Sudeste 0 -- -- 100
2019-11-11 08:00:00 5.3 2 Sudeste 5 Sudeste 0 -- -- 100
2019-11-11 07:00:00 5.1 0 Calma 5 Sudeste 0.2 -- -- 100
2019-11-11 06:00:00 5 0 Calma 7 Sudeste 0.6 -- -- 100
2019-11-11 05:00:00 4.8 0 Calma 3 Sudeste 0.2 -- -- 100
2019-11-11 04:00:00 4.6 0 Calma 4 Noroeste 0 -- -- 100
2019-11-11 03:00:00 4.4 2 Norte 5 Sudeste 0 -- -- 100
2019-11-11 02:00:00 4.4 5 Sudeste 9 Este 0.2 -- -- 100
2019-11-11 01:00:00 4.2 4 Norte 7 Norte 0 -- -- 100
2019-11-11 00:00:00 4.9 4 Norte 6 Noroeste 0.2 -- -- 100
2019-11-10 23:00:00 5.3 2 Sur 12 Norte 0.8 -- -- 100
2019-11-10 22:00:00 5.2 0 Calma 5 Norte 0.6 -- -- 100
2019-11-10 21:00:00 5.4 3 Norte 10 Nordeste 0.4 -- -- 100
2019-11-10 20:00:00 5.3 5 Sudeste 14 Noroeste 1.4 -- -- 100
2019-11-10 19:00:00 5.3 0 Calma 13 Norte 0 -- -- 100
2019-11-10 18:00:00 5.6 2 Sudeste 9 Oeste 0.2 -- -- 99
2019-11-10 17:00:00 6.5 2 Norte 13 Sudoeste 0 -- -- 95
2019-11-10 16:00:00 6.5 3 Sur 13 Noroeste 0.6 -- -- 99
2019-11-10 15:00:00 6 4 Oeste 14 Oeste 2.4 -- -- 99
2019-11-10 14:00:00 5.9 2 Sudoeste 25 Oeste 4.4 -- -- 99
2019-11-10 13:00:00 6.5 13 Noroeste 21 Noroeste 1.2 -- -- 94
2019-11-10 12:00:00 7.7 3 Sudoeste 12 Norte 0 -- -- 94
2019-11-10 11:00:00 5.8 2 Sudoeste 10 Noroeste 1.4 -- -- 99
2019-11-10 10:00:00 5.7 0 Calma 12 Norte 0.6 -- -- 99
2019-11-10 09:00:00 5.3 2 Sur 14 Norte 1.8 -- -- 100
2019-11-10 08:00:00 4.8 5 Norte 7 Noroeste 1.2 -- -- 100
2019-11-10 07:00:00 5.1 5 Este 12 Sur 1.8 -- -- 99
2019-11-10 06:00:00 5.5 5 Noroeste 13 Noroeste 2.4 -- -- 99
2019-11-10 05:00:00 5.9 4 Noroeste 19 Noroeste 0.6 -- -- 97
2019-11-10 04:00:00 5.9 4 Noroeste 23 Norte 1.2 -- -- 96
2019-11-10 03:00:00 5.7 3 Oeste 28 Nordeste 2.4 -- -- 99
2019-11-10 02:00:00 6.6 4 Sudeste 25 Noroeste 0.6 -- -- 97
2019-11-10 01:00:00 6.8 10 Noroeste 20 Noroeste 0.2 -- -- 98
2019-11-10 00:00:00 6.4 3 Sudeste 12 Noroeste 0 -- -- 99
2019-11-09 23:00:00 7.1 5 Oeste 11 Oeste 1.2 -- -- 99
2019-11-09 22:00:00 7.5 3 Sudoeste 18 Noroeste 5 -- -- 97
2019-11-09 21:00:00 8.2 8 Noroeste 28 Norte 3.2 -- -- 95
2019-11-09 20:00:00 9.1 13 Norte 35 Noroeste 2.6 -- -- 93
2019-11-09 19:00:00 10 10 Noroeste 36 Noroeste 1 -- -- 94
2019-11-09 18:00:00 9.3 4 Este 10 Sudeste 0.2 -- -- 100
2019-11-09 17:00:00 9.3 5 Sudeste 8 Sudeste 1.2 -- -- 100
2019-11-09 16:00:00 9.6 5 Norte 10 Norte 0.2 -- -- 98
2019-11-09 15:00:00 9.8 2 Sudoeste 9 Noroeste 1.2 -- -- 96
2019-11-09 14:00:00 10.9 4 Sudeste 11 Este 0 -- -- 82
2019-11-09 13:00:00 9.8 3 Sudoeste 23 Noroeste 0.4 -- -- 86
2019-11-09 12:00:00 10.5 3 Noroeste 6 Noroeste 0 -- -- 93
2019-11-09 11:00:00 9.4 2 Sudoeste 6 Sudeste 0 -- -- 100
2019-11-09 10:00:00 8.3 3 Sudeste 5 Nordeste 0 -- -- 100
2019-11-09 09:00:00 7.7 2 Norte 4 Norte 0.4 -- -- 100
2019-11-09 08:00:00 7.5 0 Calma 4 Sudeste 0.4 -- -- 100
2019-11-09 07:00:00 7.5 2 Noroeste 7 Este 0.4 -- -- 100
2019-11-09 06:00:00 7.6 4 Sudeste 9 Noroeste 0.4 -- -- 100
2019-11-09 05:00:00 7.6 2 Sudeste 13 Noroeste 2.2 -- -- 100
2019-11-09 04:00:00 7.1 3 Oeste 10 Noroeste 0.4 -- -- 100
2019-11-09 03:00:00 7.1 3 Sudeste 11 Norte 1.2 -- -- 100
2019-11-09 02:00:00 7.4 7 Noroeste 28 Noroeste 1.2 -- -- 97
2019-11-09 01:00:00 7.5 4 Noroeste 21 Noroeste 2.8 -- -- 96
2019-11-09 00:00:00 7.6 5 Oeste 23 Norte 2.2 -- -- 97
2019-11-08 23:00:00 7.4 4 Noroeste 33 Noroeste 1.2 -- -- 99
2019-11-08 22:00:00 7.9 8 Noroeste 30 Norte 1.8 -- -- 96
2019-11-08 21:00:00 7.9 9 Noroeste 26 Noroeste 3.6 -- -- 98
2019-11-08 20:00:00 8 13 Noroeste 32 Noroeste 4 -- -- 96
2019-11-08 19:00:00 8.1 14 Noroeste 31 Noroeste 3.2 -- -- 96
2019-11-08 18:00:00 7.9 9 Noroeste 34 Norte 4.2 -- -- 97
2019-11-08 17:00:00 7.7 8 Noroeste 34 Noroeste 2.8 -- -- 100
2019-11-08 16:00:00 6.7 4 Oeste 15 Oeste 1.2 -- -- 100
2019-11-08 15:00:00 6 3 Noroeste 12 Oeste 5.6 -- -- 100
2019-11-08 14:00:00 5.8 6 Oeste 16 Oeste 5 -- -- 97
2019-11-08 13:00:00 5.9 5 Sur 15 Nordeste 5 -- -- 98
2019-11-08 12:00:00 6.3 7 Este 13 Este 3.2 -- -- 95
2019-11-08 11:00:00 6.3 4 Este 12 Sur 1 -- -- 100
2019-11-08 10:00:00 5.6 3 Sudeste 8 Noroeste 2 -- -- 100
2019-11-08 09:00:00 5.3 3 Sur 8 Norte 1.6 -- -- 100
2019-11-08 08:00:00 5.1 4 Norte 9 Norte 0.4 -- -- 100
2019-11-08 07:00:00 5 3 Este 9 Noroeste 0.8 -- -- 100
2019-11-08 06:00:00 5.2 2 Sudeste 12 Sudoeste 0.4 -- -- 97
2019-11-08 05:00:00 5.1 5 Noroeste 11 Noroeste 1 -- -- 100
2019-11-08 04:00:00 5.1 2 Sudeste 18 Norte 0.2 -- -- 98
2019-11-08 03:00:00 5.7 9 Norte 21 Oeste 0.2 -- -- 91
2019-11-08 02:00:00 3.6 3 Noroeste 7 Norte 0 -- -- 100
2019-11-08 01:00:00 3.2 3 Este 5 Noroeste 0 -- -- 100
2019-11-08 00:00:00 3.6 5 Norte 8 Norte 0 -- -- 100